Aérodrome :
LOGIN :

S'inscrire | Disclaimer

   EN    FR    IT 

 










Légende :    VFR   VFR Marginal   IFR   IFR Intensif   IFR Très Intensif
Visi : 
Plafond : 
>= 8 km
>= 3000ft
5 à 8 km
1000 à 3000 ft
1500m à 5 km
500 à 1000 ft
800 à 1500m
200 à 500 ft
< 800m
< 200 ft
Symboles :   Orages  Brouillard  Fortes neiges  Fortes précipitations  Vent > 20 kt
SIGMETs :   Divers  Orages  Givrage  Turbulence  Onde Orograph.  Cendres Volcan.







- Altitude de l'aérodrome : 36 ft
- Code IATA : LTQ
- Voir les cartes d'approche


LFAT - Le Touquet

DERNIER METAR :
  • 221000Z AUTO VRB03KT 9999 SCT027 SCT170 BKN210 05/02 Q1004 NOSIG

METARs EXPIRÉS :
  • 220930Z AUTO 29004KT 9999 BKN024 OVC150 05/02 Q1004 NOSIG
  • 220900Z AUTO 30006KT 9999 BKN022 BKN027 05/03 Q1004 TEMPO 4000 RA BKN012
  • 220830Z AUTO 27005KT 220V320 9999 FEW011 BKN021 BKN039 04/03 Q1004 TEMPO 4000 RA BKN012
  • 220800Z AUTO 20010KT 160V240 8000 BKN010 OVC014 03/03 Q1004 TEMPO 2000 BECMG 30012KT BKN020
  • 220730Z AUTO 17007KT 4800 BR OVC007 01/01 Q1004 BECMG 30012KT 9999 NSW BKN020
  • 220700Z AUTO 17008KT 3600 -SN BR OVC007/// ///TCU 01/00 Q1005 TEMPO 16015G25KT 2000 OVC003

TAF TAF LFAT
Valide du 22 à 09h jusqu'au 22 à 18h UTC


220800Z 2209/2218 29012KT 9999 BKN025
TEMPO 2209/2210 4000 RA BKN012
PROB30
TEMPO 2213/2218 4000 SHRA BKN013
ATIS : +33 3 21 06 62 84
Pas de NOTAMs connus pour ce terrain.



MET'MAP, la Météo Aéronautique d'un coup d'oeil ! - Copyright ORBIFLY Décembre 2007 - Disclaimer

ORBIFLY MET'MAP TEAM :

Programmation & Développement : Alexandra Zaïnal
Conception & Développement : Baudouin d'Aumeries
Co-Programmation & Développement : Marc-Olivier Méhu
Soutien technique & logistique : Manuel Goepfert

Contact : metmap@orbifly.com




SOURCES & CREDITS :

   NOAA